createdAt,value
2019-03-19T00:00:58.651Z,0.00
2019-03-19T00:01:58.629Z,0.00
2019-03-19T00:02:58.620Z,0.00
2019-03-19T00:03:58.605Z,0.00
2019-03-19T00:04:58.596Z,0.00
2019-03-19T00:06:01.061Z,0.00
2019-03-19T00:06:58.579Z,0.00
2019-03-19T00:07:58.568Z,0.00
2019-03-19T00:08:58.553Z,0.00
2019-03-19T00:09:58.541Z,0.00
2019-03-19T00:10:58.548Z,0.00
2019-03-19T00:11:58.521Z,0.00
2019-03-19T00:12:58.511Z,0.00
2019-03-19T00:13:58.500Z,0.00
2019-03-19T00:14:58.487Z,0.00
2019-03-19T00:15:58.486Z,0.00
2019-03-19T00:16:58.466Z,0.00
2019-03-19T00:17:58.462Z,0.00
2019-03-19T00:18:58.442Z,0.00
2019-03-19T00:19:58.431Z,0.00
2019-03-19T00:20:58.452Z,0.00
2019-03-19T00:21:58.409Z,0.00
2019-03-19T00:22:58.407Z,0.00
2019-03-19T00:23:58.390Z,0.00
2019-03-19T00:24:58.385Z,0.00
2019-03-19T00:25:58.368Z,0.00
2019-03-19T00:26:58.368Z,0.00
2019-03-19T00:27:58.367Z,0.00
2019-03-19T00:28:58.336Z,0.00
2019-03-19T00:29:58.325Z,0.00
2019-03-19T00:30:58.313Z,0.00
2019-03-19T00:31:58.319Z,0.00
2019-03-19T00:32:58.291Z,0.00
2019-03-19T00:33:58.281Z,0.00
2019-03-19T00:34:58.274Z,0.00
2019-03-19T00:35:58.258Z,0.00
2019-03-19T00:36:58.260Z,0.00
2019-03-19T00:37:58.235Z,0.00
2019-03-19T00:38:58.235Z,0.00
2019-03-19T00:39:58.215Z,0.00
2019-03-19T00:40:58.203Z,0.00
2019-03-19T00:41:58.201Z,0.00
2019-03-19T00:42:58.182Z,0.00
2019-03-19T00:43:58.170Z,0.00
2019-03-19T00:44:58.161Z,0.00
2019-03-19T00:45:58.149Z,0.00
2019-03-19T00:46:58.150Z,0.00
2019-03-19T00:47:58.134Z,0.00
2019-03-19T00:48:58.115Z,0.00
2019-03-19T00:49:58.104Z,0.00
2019-03-19T00:50:58.096Z,0.00
2019-03-19T00:51:58.092Z,0.00
2019-03-19T00:52:58.082Z,0.00
2019-03-19T00:53:58.061Z,0.00
2019-03-19T00:54:58.051Z,0.00
2019-03-19T00:55:58.043Z,0.00
2019-03-19T00:56:58.054Z,0.00
2019-03-19T00:57:58.022Z,0.00
2019-03-19T00:58:58.008Z,0.00
2019-03-19T00:59:57.995Z,0.00
2019-03-19T01:00:57.987Z,0.00
2019-03-19T01:01:57.989Z,0.00
2019-03-19T01:02:57.976Z,0.00
2019-03-19T01:03:57.954Z,0.00
2019-03-19T01:04:57.940Z,0.00
2019-03-19T01:05:57.933Z,0.00
2019-03-19T01:06:57.929Z,0.00
2019-03-19T01:07:57.911Z,0.00
2019-03-19T01:08:57.903Z,0.00
2019-03-19T01:09:57.888Z,0.00
2019-03-19T01:10:57.878Z,0.00
2019-03-19T01:11:57.887Z,0.00
2019-03-19T01:12:57.854Z,0.00
2019-03-19T01:13:57.852Z,0.00
2019-03-19T01:14:57.832Z,0.00
2019-03-19T01:15:57.823Z,0.00
2019-03-19T01:16:57.822Z,0.00
2019-03-19T01:17:57.804Z,0.00
2019-03-19T01:18:57.789Z,0.00
2019-03-19T01:19:57.779Z,0.00
2019-03-19T01:20:57.771Z,0.00
2019-03-19T01:21:57.769Z,0.00
2019-03-19T01:22:57.750Z,0.00
2019-03-19T01:23:57.736Z,0.00
2019-03-19T01:24:57.729Z,0.00
2019-03-19T01:25:57.718Z,0.00
2019-03-19T01:26:57.709Z,0.00
2019-03-19T01:27:57.693Z,0.00
2019-03-19T01:28:57.682Z,0.00
2019-03-19T01:29:57.677Z,0.00
2019-03-19T01:30:57.667Z,0.00
2019-03-19T01:31:57.662Z,0.00
2019-03-19T01:32:57.641Z,0.00
2019-03-19T01:33:57.627Z,0.00
2019-03-19T01:34:57.622Z,0.00
2019-03-19T01:35:57.611Z,0.00
2019-03-19T01:36:57.609Z,0.00
2019-03-19T01:37:57.586Z,0.00
2019-03-19T01:38:57.571Z,0.00
2019-03-19T01:39:57.561Z,0.00
2019-03-19T01:40:57.552Z,0.00
2019-03-19T01:41:57.553Z,0.00
2019-03-19T01:42:57.539Z,0.00
2019-03-19T01:43:57.518Z,0.00
2019-03-19T01:44:57.509Z,0.00
2019-03-19T01:46:06.752Z,0.00
2019-03-19T01:46:57.494Z,0.00
2019-03-19T01:47:57.473Z,0.00
2019-03-19T01:48:57.463Z,0.00
2019-03-19T01:49:57.453Z,0.00
2019-03-19T01:50:57.441Z,0.00
2019-03-19T01:51:57.440Z,0.00
2019-03-19T01:52:57.422Z,0.00
2019-03-19T01:53:57.412Z,0.00
2019-03-19T01:54:57.400Z,0.00
2019-03-19T01:56:05.036Z,0.00
2019-03-19T01:56:58.385Z,0.00
2019-03-19T01:57:57.368Z,0.00
2019-03-19T01:58:57.356Z,0.00
2019-03-19T01:59:57.346Z,0.00
2019-03-19T02:00:57.333Z,0.00
2019-03-19T02:01:57.332Z,0.00
2019-03-19T02:02:57.311Z,0.00
2019-03-19T02:03:57.329Z,0.00
2019-03-19T02:04:57.296Z,0.00
2019-03-19T02:05:57.279Z,0.00
2019-03-19T02:08:30.275Z,0.00
2019-03-19T02:09:06.524Z,0.00
2019-03-19T02:10:06.514Z,0.00
2019-03-19T02:11:06.501Z,0.00
2019-03-19T02:12:06.499Z,0.00
2019-03-19T02:13:06.478Z,0.00
2019-03-19T02:14:06.470Z,0.00
2019-03-19T02:15:06.459Z,0.00
2019-03-19T02:16:06.446Z,0.00
2019-03-19T02:17:06.445Z,0.00
2019-03-19T02:18:06.437Z,0.00
2019-03-19T02:19:06.416Z,0.00
2019-03-19T02:20:06.409Z,0.00
2019-03-19T02:21:06.394Z,0.00
2019-03-19T02:22:06.396Z,0.00
2019-03-19T02:23:06.382Z,0.00
2019-03-19T02:24:06.360Z,0.00
2019-03-19T02:25:06.351Z,0.00
2019-03-19T02:26:15.850Z,0.00
2019-03-19T02:27:07.338Z,0.00
2019-03-19T02:28:06.320Z,0.00
2019-03-19T02:29:06.310Z,0.00
2019-03-19T02:30:06.298Z,0.00
2019-03-19T02:31:06.287Z,0.00
2019-03-19T02:32:06.284Z,0.00
2019-03-19T02:33:06.355Z,0.00
2019-03-19T02:34:06.258Z,0.00
2019-03-19T02:35:06.248Z,0.00
2019-03-19T02:36:06.238Z,0.00
2019-03-19T02:37:06.245Z,0.00
2019-03-19T02:38:06.221Z,0.00
2019-03-19T02:39:06.216Z,0.00
2019-03-19T02:40:06.193Z,0.00
2019-03-19T02:41:06.183Z,0.00
2019-03-19T02:42:06.211Z,0.00
2019-03-19T02:43:06.169Z,0.00
2019-03-19T02:44:06.150Z,0.00
2019-03-19T02:45:06.141Z,0.00
2019-03-19T02:46:06.136Z,0.00
2019-03-19T02:47:06.122Z,0.00
2019-03-19T02:48:06.118Z,0.00
2019-03-19T02:49:06.153Z,0.00
2019-03-19T02:50:06.089Z,0.00
2019-03-19T02:51:06.104Z,0.00
2019-03-19T02:52:06.069Z,0.00
2019-03-19T02:53:06.063Z,0.00
2019-03-19T02:54:06.043Z,0.00
2019-03-19T02:55:06.032Z,0.00
2019-03-19T02:56:06.028Z,0.00
2019-03-19T02:57:06.013Z,0.00
2019-03-19T02:58:06.011Z,0.00
2019-03-19T02:59:05.991Z,0.00
2019-03-19T03:00:05.979Z,0.00
2019-03-19T03:01:05.969Z,0.00
2019-03-19T03:02:05.962Z,0.00
2019-03-19T03:03:05.961Z,0.00
2019-03-19T03:04:05.935Z,0.00
2019-03-19T03:05:05.925Z,0.00
2019-03-19T03:06:05.918Z,0.00
2019-03-19T03:07:05.903Z,0.00
2019-03-19T03:08:05.902Z,0.00
2019-03-19T03:09:05.881Z,0.00
2019-03-19T03:10:05.909Z,0.00
2019-03-19T03:11:05.878Z,0.00
2019-03-19T03:12:05.855Z,0.00
2019-03-19T03:13:05.850Z,0.00
2019-03-19T03:14:05.832Z,0.00
2019-03-19T03:15:05.817Z,0.00
2019-03-19T03:16:05.807Z,0.00
2019-03-19T03:17:05.797Z,0.00
2019-03-19T03:18:05.797Z,0.00
2019-03-19T03:19:05.779Z,0.00
2019-03-19T03:20:05.773Z,0.00
2019-03-19T03:21:05.754Z,0.00
2019-03-19T03:22:05.751Z,0.00
2019-03-19T03:23:05.742Z,0.00
2019-03-19T03:24:05.724Z,0.00
2019-03-19T03:25:05.722Z,0.00
2019-03-19T03:26:05.700Z,0.00
2019-03-19T03:27:05.695Z,0.00
2019-03-19T03:28:05.688Z,0.00
2019-03-19T03:29:05.692Z,0.00
2019-03-19T03:30:05.661Z,0.00
2019-03-19T03:31:05.656Z,0.00
2019-03-19T03:32:05.643Z,0.00
2019-03-19T03:33:05.650Z,0.00
2019-03-19T03:34:05.615Z,0.00
2019-03-19T03:35:05.605Z,0.00
2019-03-19T03:36:05.592Z,0.00
2019-03-19T03:37:05.598Z,0.00
2019-03-19T03:38:05.583Z,0.00
2019-03-19T03:39:05.562Z,0.00
2019-03-19T03:40:05.559Z,0.00
2019-03-19T03:41:05.542Z,0.00
2019-03-19T03:42:05.564Z,0.00
2019-03-19T03:43:05.544Z,0.00
2019-03-19T03:44:05.510Z,0.00
2019-03-19T03:45:05.547Z,0.00
2019-03-19T03:46:05.490Z,0.00
2019-03-19T03:47:05.495Z,0.00
2019-03-19T03:48:05.475Z,0.00
2019-03-19T03:49:05.459Z,0.00
2019-03-19T03:50:05.458Z,0.00
2019-03-19T03:51:05.435Z,0.00
2019-03-19T03:52:05.426Z,0.00
2019-03-19T03:53:05.421Z,0.00
2019-03-19T03:54:05.417Z,0.00
2019-03-19T03:55:05.392Z,0.00
2019-03-19T03:56:05.383Z,0.00
2019-03-19T03:57:05.370Z,0.00
2019-03-19T03:58:05.377Z,0.00
2019-03-19T03:59:05.351Z,0.00
2019-03-19T04:00:05.339Z,0.00
2019-03-19T04:01:05.328Z,0.00
2019-03-19T04:02:05.317Z,0.00
2019-03-19T04:03:05.316Z,0.00
2019-03-19T04:04:05.301Z,0.00
2019-03-19T04:05:05.285Z,0.00
2019-03-19T04:06:05.281Z,0.00
2019-03-19T04:07:05.373Z,0.00
2019-03-19T04:08:05.274Z,0.00
2019-03-19T04:09:08.864Z,0.00
2019-03-19T04:10:05.230Z,0.00
2019-03-19T04:11:05.222Z,0.00
2019-03-19T04:12:05.222Z,0.00
2019-03-19T04:13:05.217Z,0.00
2019-03-19T04:14:05.283Z,0.00
2019-03-19T04:15:05.209Z,0.00
2019-03-19T04:16:05.168Z,0.00
2019-03-19T04:17:05.157Z,0.00
2019-03-19T04:18:05.157Z,0.00
2019-03-19T04:19:05.138Z,0.00
2019-03-19T04:20:05.126Z,0.00
2019-03-19T04:21:05.118Z,0.00
2019-03-19T04:22:05.111Z,0.00
2019-03-19T04:23:05.107Z,0.00
2019-03-19T04:24:05.099Z,0.00
2019-03-19T04:25:05.071Z,0.00
2019-03-19T04:26:05.061Z,0.00
2019-03-19T04:27:15.435Z,0.00
2019-03-19T04:28:06.046Z,0.00
2019-03-19T04:29:05.030Z,0.00
2019-03-19T04:30:05.030Z,0.00
2019-03-19T04:31:05.018Z,0.00
2019-03-19T04:32:05.038Z,0.00
2019-03-19T04:33:04.997Z,0.00
2019-03-19T04:34:04.976Z,0.00
2019-03-19T04:35:04.964Z,0.00
2019-03-19T04:36:04.955Z,0.00
2019-03-19T04:37:04.944Z,0.00
2019-03-19T04:38:04.943Z,0.00
2019-03-19T04:39:04.922Z,0.00
2019-03-19T04:40:04.913Z,0.00
2019-03-19T04:41:04.913Z,0.00
2019-03-19T04:42:04.894Z,0.00
2019-03-19T04:43:04.895Z,0.00
2019-03-19T04:44:04.871Z,0.00
2019-03-19T04:45:04.860Z,0.00
2019-03-19T04:46:04.848Z,0.00
2019-03-19T04:47:04.841Z,0.00
2019-03-19T04:48:04.849Z,0.00
2019-03-19T04:49:04.816Z,0.00
2019-03-19T04:50:04.804Z,0.00
2019-03-19T04:51:04.795Z,4.00
2019-03-19T04:52:04.787Z,0.00
2019-03-19T04:53:04.831Z,0.00
2019-03-19T04:54:04.771Z,4.00
2019-03-19T04:55:04.761Z,4.00
2019-03-19T04:56:04.742Z,4.00
2019-03-19T04:57:04.730Z,4.00
2019-03-19T04:58:04.720Z,4.00
2019-03-19T04:59:04.718Z,4.00
2019-03-19T05:00:04.699Z,8.00
2019-03-19T05:01:04.691Z,8.00
2019-03-19T05:02:04.680Z,8.00
2019-03-19T05:03:04.666Z,12.00
2019-03-19T05:04:04.666Z,12.00
2019-03-19T05:05:04.646Z,12.00
2019-03-19T05:06:04.634Z,16.00
2019-03-19T05:07:04.623Z,12.00
2019-03-19T05:08:04.613Z,16.00
2019-03-19T05:09:04.610Z,20.00
2019-03-19T05:10:04.592Z,20.00
2019-03-19T05:11:04.579Z,20.00
2019-03-19T05:12:04.569Z,20.00
2019-03-19T05:13:04.557Z,24.00
2019-03-19T05:14:04.557Z,28.00
2019-03-19T05:15:04.540Z,28.00
2019-03-19T05:16:04.526Z,32.00
2019-03-19T05:17:04.521Z,36.00
2019-03-19T05:18:04.508Z,40.00
2019-03-19T05:19:04.503Z,44.00
2019-03-19T05:20:04.486Z,44.00
2019-03-19T05:21:04.476Z,44.00
2019-03-19T05:22:04.463Z,48.00
2019-03-19T05:23:04.453Z,52.00
2019-03-19T05:24:04.454Z,56.00
2019-03-19T05:25:04.436Z,56.00
2019-03-19T05:26:04.420Z,60.00
2019-03-19T05:27:04.412Z,60.00
2019-03-19T05:28:04.405Z,60.00
2019-03-19T05:29:04.397Z,60.00
2019-03-19T05:30:04.377Z,64.00
2019-03-19T05:31:04.365Z,68.00
2019-03-19T05:32:04.357Z,68.00
2019-03-19T05:33:04.345Z,72.00
2019-03-19T05:34:04.343Z,76.00
2019-03-19T05:35:04.323Z,80.00
2019-03-19T05:36:04.317Z,84.00
2019-03-19T05:37:04.308Z,92.00
2019-03-19T05:38:04.294Z,100.00
2019-03-19T05:39:04.291Z,104.00
2019-03-19T05:40:04.271Z,104.00
2019-03-19T05:41:04.263Z,108.00
2019-03-19T05:42:04.273Z,120.00
2019-03-19T05:43:04.237Z,128.00
2019-03-19T05:44:04.239Z,136.00
2019-03-19T05:45:04.217Z,144.00
2019-03-19T05:46:04.207Z,148.00
2019-03-19T05:47:04.197Z,156.00
2019-03-19T05:48:04.186Z,160.00
2019-03-19T05:49:04.187Z,168.00
2019-03-19T05:50:04.169Z,176.00
2019-03-19T05:51:04.154Z,172.00
2019-03-19T05:52:04.143Z,172.00
2019-03-19T05:53:04.133Z,176.00
2019-03-19T05:54:04.132Z,180.00
2019-03-19T05:55:04.113Z,172.00
2019-03-19T05:56:04.102Z,180.00
2019-03-19T05:57:04.090Z,176.00
2019-03-19T05:58:04.078Z,172.00
2019-03-19T05:59:04.079Z,188.00
2019-03-19T06:00:04.056Z,196.00
2019-03-19T06:01:04.046Z,188.00
2019-03-19T06:02:04.035Z,180.00
2019-03-19T06:03:04.024Z,176.00
2019-03-19T06:04:04.024Z,176.00
2019-03-19T06:05:04.008Z,184.00
2019-03-19T06:06:03.996Z,200.00
2019-03-19T06:07:03.982Z,216.00
2019-03-19T06:08:03.973Z,224.00
2019-03-19T06:09:03.971Z,236.00
2019-03-19T06:10:03.953Z,252.00
2019-03-19T06:11:03.939Z,268.00
2019-03-19T06:12:03.937Z,288.00
2019-03-19T06:13:03.918Z,308.00
2019-03-19T06:14:03.917Z,344.00
2019-03-19T06:15:03.901Z,380.00
2019-03-19T06:16:03.885Z,464.00
2019-03-19T06:17:03.875Z,444.00
2019-03-19T06:18:03.864Z,472.00
2019-03-19T06:19:03.866Z,500.00
2019-03-19T06:20:03.856Z,524.00
2019-03-19T06:21:03.835Z,540.00
2019-03-19T06:22:03.826Z,560.00
2019-03-19T06:23:03.811Z,584.00
2019-03-19T06:24:03.810Z,616.00
2019-03-19T06:25:03.792Z,632.00
2019-03-19T06:26:03.784Z,660.00
2019-03-19T06:27:03.768Z,684.00
2019-03-19T06:28:03.757Z,724.00
2019-03-19T06:29:03.756Z,756.00
2019-03-19T06:30:03.736Z,736.00
2019-03-19T06:31:03.726Z,788.00
2019-03-19T06:32:03.722Z,804.00
2019-03-19T06:33:03.704Z,848.00
2019-03-19T06:34:03.702Z,872.00
2019-03-19T06:35:03.683Z,924.00
2019-03-19T06:36:03.676Z,944.00
2019-03-19T06:37:03.663Z,968.00
2019-03-19T06:38:03.649Z,1048.00
2019-03-19T06:39:03.653Z,1112.00
2019-03-19T06:40:03.650Z,1128.00
2019-03-19T06:41:03.618Z,1048.00
2019-03-19T06:42:03.610Z,1140.00
2019-03-19T06:43:03.601Z,1172.00
2019-03-19T06:44:03.598Z,1184.00
2019-03-19T06:45:03.582Z,1212.00
2019-03-19T06:46:03.566Z,1224.00
2019-03-19T06:47:03.552Z,1296.00
2019-03-19T06:48:03.544Z,1312.00
2019-03-19T06:49:03.541Z,1368.00
2019-03-19T06:50:03.523Z,1560.00
2019-03-19T06:51:03.510Z,1844.00
2019-03-19T06:52:03.503Z,2300.00
2019-03-19T06:53:03.496Z,2640.00
2019-03-19T06:54:03.490Z,2872.00
2019-03-19T06:55:03.469Z,3200.00
2019-03-19T06:56:03.458Z,3028.00
2019-03-19T06:57:03.448Z,2892.00
2019-03-19T06:58:11.002Z,2908.00
2019-03-19T06:59:04.437Z,3132.00
2019-03-19T07:00:03.417Z,3424.00
2019-03-19T07:01:03.407Z,4872.00
2019-03-19T07:02:03.413Z,4164.00
2019-03-19T07:03:03.386Z,5560.00
2019-03-19T07:04:03.382Z,6268.00
2019-03-19T07:05:03.364Z,7032.00
2019-03-19T07:06:03.352Z,7036.00
2019-03-19T07:07:03.345Z,7320.00
2019-03-19T07:08:03.332Z,6216.00
2019-03-19T07:09:03.335Z,7628.00
2019-03-19T07:10:03.312Z,7932.00
2019-03-19T07:11:03.299Z,7960.00
2019-03-19T07:12:03.287Z,8160.00
2019-03-19T07:13:03.278Z,8512.00
2019-03-19T07:14:03.306Z,8648.00
2019-03-19T07:15:03.259Z,9092.00
2019-03-19T07:16:03.252Z,9484.00
2019-03-19T07:17:03.237Z,9608.00
2019-03-19T07:18:03.224Z,9868.00
2019-03-19T07:19:03.218Z,6904.00
2019-03-19T07:20:03.220Z,9380.00
2019-03-19T07:21:03.195Z,9492.00
2019-03-19T07:22:03.180Z,10432.00
2019-03-19T07:23:03.170Z,11720.00
2019-03-19T07:24:03.158Z,9712.00
2019-03-19T07:25:03.157Z,24640.00
2019-03-19T07:26:03.142Z,21536.00
2019-03-19T07:27:03.129Z,12672.00
2019-03-19T07:28:03.120Z,10204.00
2019-03-19T07:29:03.112Z,9380.00
2019-03-19T07:30:03.108Z,52608.00
2019-03-19T07:31:03.089Z,11640.00
2019-03-19T07:32:03.074Z,27200.00
2019-03-19T07:33:03.071Z,32800.00
2019-03-19T07:34:03.057Z,45024.00
2019-03-19T07:35:03.050Z,11032.00
2019-03-19T07:36:03.036Z,58688.00
2019-03-19T07:37:03.018Z,54176.00
2019-03-19T07:38:03.014Z,40544.00
2019-03-19T07:39:02.998Z,13640.00
2019-03-19T07:40:02.996Z,16640.00
2019-03-19T07:41:02.977Z,37792.00
2019-03-19T07:42:02.969Z,21248.00
2019-03-19T07:43:02.954Z,41600.00
2019-03-19T07:44:02.946Z,18304.00
2019-03-19T07:45:02.963Z,51264.00
2019-03-19T07:46:02.924Z,10096.00
2019-03-19T07:47:02.914Z,7924.00
2019-03-19T07:48:02.901Z,22848.00
2019-03-19T07:49:02.889Z,15292.00
2019-03-19T07:50:02.894Z,23744.00
2019-03-19T07:51:02.870Z,11236.00
2019-03-19T07:52:02.857Z,8696.00
2019-03-19T07:53:02.850Z,9908.00
2019-03-19T07:54:02.837Z,73984.00
2019-03-19T07:55:02.837Z,74336.00
2019-03-19T07:56:02.822Z,74400.00
2019-03-19T07:57:02.803Z,74880.00
2019-03-19T07:58:02.792Z,76224.00
2019-03-19T07:59:02.783Z,50144.00
2019-03-19T08:00:02.783Z,11844.00
2019-03-19T08:01:02.762Z,10064.00
2019-03-19T08:02:02.756Z,35776.00
2019-03-19T08:03:02.740Z,18016.00
2019-03-19T08:04:04.959Z,8184.00
2019-03-19T08:05:02.727Z,6456.00
2019-03-19T08:06:02.747Z,6620.00
2019-03-19T08:07:02.699Z,81280.00
2019-03-19T08:08:02.688Z,41632.00
2019-03-19T08:09:02.678Z,6232.00
2019-03-19T08:10:02.684Z,79488.00
2019-03-19T08:11:02.653Z,78560.00
2019-03-19T08:12:02.657Z,64160.00
2019-03-19T08:13:02.637Z,36128.00
2019-03-19T08:14:02.624Z,16864.00
2019-03-19T08:15:02.620Z,87456.00
2019-03-19T08:16:02.598Z,76224.00
2019-03-19T08:17:11.832Z,29568.00
2019-03-19T08:18:02.577Z,88544.00
2019-03-19T08:19:02.567Z,86816.00
2019-03-19T08:20:02.570Z,87904.00
2019-03-19T08:21:02.549Z,87392.00
2019-03-19T08:22:02.535Z,19840.00
2019-03-19T08:23:02.526Z,16000.00
2019-03-19T08:24:02.513Z,7508.00
2019-03-19T08:25:02.512Z,6212.00
2019-03-19T08:26:02.494Z,6092.00
2019-03-19T08:27:02.480Z,7088.00
2019-03-19T08:28:02.472Z,88928.00
2019-03-19T08:29:02.461Z,81760.00
2019-03-19T08:30:02.460Z,63168.00
2019-03-19T08:31:02.444Z,53600.00
2019-03-19T08:32:02.431Z,39136.00
2019-03-19T08:33:02.461Z,26784.00
2019-03-19T08:34:02.406Z,25504.00
2019-03-19T08:35:02.405Z,23264.00
2019-03-19T08:36:09.268Z,23232.00
2019-03-19T08:37:03.373Z,24128.00
2019-03-19T08:38:02.381Z,23104.00
2019-03-19T08:39:02.354Z,8692.00
2019-03-19T08:40:02.356Z,11224.00
2019-03-19T08:41:02.343Z,8640.00
2019-03-19T08:42:02.325Z,8008.00
2019-03-19T08:43:02.318Z,11416.00
2019-03-19T08:44:02.304Z,10552.00
2019-03-19T08:45:02.299Z,7032.00
2019-03-19T08:46:02.303Z,8028.00
2019-03-19T08:47:02.271Z,23040.00
2019-03-19T08:48:02.263Z,7040.00
2019-03-19T08:49:02.273Z,8380.00
2019-03-19T08:50:02.245Z,24096.00
2019-03-19T08:51:02.227Z,7948.00
2019-03-19T08:52:02.217Z,10352.00
2019-03-19T08:53:02.206Z,23968.00
2019-03-19T08:54:02.207Z,12924.00
2019-03-19T08:55:02.199Z,9728.00
2019-03-19T08:56:02.173Z,7696.00
2019-03-19T08:57:02.162Z,7160.00
2019-03-19T08:58:02.152Z,7416.00
2019-03-19T08:59:05.766Z,20896.00
2019-03-19T09:00:02.147Z,22464.00
2019-03-19T09:01:02.130Z,22656.00
2019-03-19T09:02:02.110Z,23264.00
2019-03-19T09:03:02.111Z,24064.00
2019-03-19T09:04:02.096Z,21152.00
2019-03-19T09:05:03.144Z,23712.00
2019-03-19T09:06:02.074Z,23424.00
2019-03-19T09:07:02.059Z,24128.00
2019-03-19T09:08:02.049Z,25504.00
2019-03-19T09:09:02.036Z,25152.00
2019-03-19T09:10:02.037Z,6680.00
2019-03-19T09:11:02.017Z,7388.00
2019-03-19T09:12:02.013Z,8880.00
2019-03-19T09:13:01.995Z,11048.00
2019-03-19T09:14:01.986Z,18208.00
2019-03-19T09:15:01.985Z,32768.00
2019-03-19T09:16:01.994Z,35488.00
2019-03-19T09:17:01.955Z,8676.00
2019-03-19T09:18:01.945Z,6204.00
2019-03-19T09:19:01.942Z,5988.00
2019-03-19T09:20:01.933Z,16544.00
2019-03-19T09:21:01.913Z,6984.00
2019-03-19T09:22:01.923Z,7244.00
2019-03-19T09:23:01.890Z,4656.00
2019-03-19T09:24:01.884Z,4476.00
2019-03-19T09:25:01.909Z,4840.00
2019-03-19T09:26:01.869Z,12900.00
2019-03-19T09:27:01.858Z,6772.00
2019-03-19T09:28:01.837Z,5756.00
2019-03-19T09:29:01.831Z,106528.00
2019-03-19T09:30:01.823Z,86176.00
2019-03-19T09:31:01.837Z,5132.00
2019-03-19T09:32:01.795Z,5920.00
2019-03-19T09:33:01.787Z,8148.00
2019-03-19T09:34:01.776Z,8728.00
2019-03-19T09:35:01.775Z,13960.00
2019-03-19T09:36:01.763Z,8428.00
2019-03-19T09:37:01.743Z,4588.00
2019-03-19T09:38:01.730Z,3572.00
2019-03-19T09:39:01.726Z,4548.00
2019-03-19T09:40:01.718Z,33024.00
2019-03-19T09:41:01.709Z,23040.00
2019-03-19T09:42:01.689Z,17376.00
2019-03-19T09:43:01.687Z,14176.00
2019-03-19T09:44:01.666Z,16032.00
2019-03-19T09:45:01.659Z,13760.00
2019-03-19T09:46:01.656Z,13380.00
2019-03-19T09:47:01.633Z,8712.00
2019-03-19T09:48:01.630Z,6828.00
2019-03-19T09:49:01.611Z,6860.00
2019-03-19T09:50:01.610Z,6772.00
2019-03-19T09:51:01.604Z,6508.00
2019-03-19T09:52:01.583Z,7300.00
2019-03-19T09:53:01.570Z,6588.00
2019-03-19T09:54:01.561Z,5840.00
2019-03-19T09:55:01.548Z,6860.00
2019-03-19T09:56:01.545Z,7760.00
2019-03-19T09:57:01.527Z,5624.00
2019-03-19T09:58:01.516Z,4676.00
2019-03-19T09:59:01.510Z,4296.00
2019-03-19T10:00:01.495Z,4104.00
2019-03-19T10:01:01.494Z,3836.00
2019-03-19T10:02:01.474Z,3628.00
2019-03-19T10:03:01.464Z,3572.00
2019-03-19T10:04:01.452Z,3492.00
2019-03-19T10:05:01.442Z,3176.00
2019-03-19T10:06:12.638Z,3152.00
2019-03-19T10:07:06.238Z,3716.00
2019-03-19T10:08:01.409Z,3832.00
2019-03-19T10:09:01.399Z,4392.00
2019-03-19T10:10:01.388Z,4908.00
2019-03-19T10:11:01.387Z,5932.00
2019-03-19T10:12:01.382Z,6084.00
2019-03-19T10:13:01.355Z,6052.00
2019-03-19T10:14:01.349Z,5116.00
2019-03-19T10:15:01.341Z,5004.00
2019-03-19T10:16:01.339Z,4616.00
2019-03-19T10:17:01.313Z,5800.00
2019-03-19T10:18:01.300Z,13184.00
2019-03-19T10:19:01.289Z,22272.00
2019-03-19T10:20:01.289Z,8940.00
2019-03-19T10:21:01.281Z,7176.00
2019-03-19T10:22:01.272Z,5780.00
2019-03-19T10:23:01.261Z,4660.00
2019-03-19T10:24:01.238Z,4648.00
2019-03-19T10:25:01.240Z,5200.00
2019-03-19T10:26:01.224Z,6104.00
2019-03-19T10:27:01.203Z,13272.00
2019-03-19T10:28:01.194Z,8460.00
2019-03-19T10:29:01.205Z,6744.00
2019-03-19T10:30:01.171Z,18720.00
2019-03-19T10:31:01.173Z,10064.00
2019-03-19T10:32:01.153Z,12928.00
2019-03-19T10:33:01.182Z,8188.00
2019-03-19T10:34:01.128Z,6712.00
2019-03-19T10:35:01.119Z,5876.00
2019-03-19T10:36:01.122Z,4864.00
2019-03-19T10:37:01.097Z,4460.00
2019-03-19T10:38:01.084Z,4040.00
2019-03-19T10:39:01.074Z,4280.00
2019-03-19T10:40:01.066Z,4424.00
2019-03-19T10:41:01.067Z,4196.00
2019-03-19T10:42:01.043Z,4688.00
2019-03-19T10:43:01.030Z,4596.00
2019-03-19T10:44:01.020Z,4740.00
2019-03-19T10:45:01.008Z,4808.00
2019-03-19T10:46:01.007Z,4500.00
2019-03-19T10:47:00.987Z,4312.00
2019-03-19T10:48:00.977Z,3944.00
2019-03-19T10:49:00.970Z,3820.00
2019-03-19T10:50:00.960Z,4244.00
2019-03-19T10:51:00.959Z,4748.00
2019-03-19T10:52:00.933Z,4680.00
2019-03-19T10:53:00.925Z,4796.00
2019-03-19T10:54:00.924Z,4560.00
2019-03-19T10:55:00.908Z,4136.00
2019-03-19T10:56:00.906Z,3800.00
2019-03-19T10:57:00.881Z,3380.00
2019-03-19T10:58:10.565Z,3136.00
2019-03-19T10:59:01.861Z,3248.00
2019-03-19T11:00:00.910Z,3732.00
2019-03-19T11:01:01.173Z,4480.00
2019-03-19T11:02:00.825Z,6928.00
2019-03-19T11:03:00.816Z,5876.00
2019-03-19T11:04:00.808Z,5224.00
2019-03-19T11:05:00.798Z,5392.00
2019-03-19T11:06:00.797Z,5628.00
2019-03-19T11:07:00.786Z,6744.00
2019-03-19T11:08:00.760Z,6524.00
2019-03-19T11:09:00.762Z,6372.00
2019-03-19T11:10:00.743Z,6532.00
2019-03-19T11:11:00.745Z,9080.00
2019-03-19T11:12:00.726Z,6752.00
2019-03-19T11:13:00.709Z,9972.00
2019-03-19T11:14:00.697Z,8764.00
2019-03-19T11:15:00.685Z,9992.00
2019-03-19T11:16:00.682Z,10184.00
2019-03-19T11:17:00.666Z,9404.00
2019-03-19T11:18:00.656Z,8244.00
2019-03-19T11:19:00.642Z,10008.00
2019-03-19T11:20:01.109Z,11040.00
2019-03-19T11:21:00.886Z,10452.00
2019-03-19T11:22:00.815Z,8660.00
2019-03-19T11:23:01.804Z,7208.00
2019-03-19T11:24:00.843Z,7412.00
2019-03-19T11:25:00.581Z,6168.00
2019-03-19T11:26:00.581Z,5388.00
2019-03-19T11:27:00.557Z,4956.00
2019-03-19T11:28:00.558Z,4564.00
2019-03-19T11:29:00.542Z,4140.00
2019-03-19T11:30:00.558Z,3588.00
2019-03-19T11:31:00.535Z,3148.00
2019-03-19T11:32:00.503Z,2668.00
2019-03-19T11:33:00.492Z,2380.00
2019-03-19T11:34:01.400Z,2248.00
2019-03-19T11:35:00.497Z,2168.00
2019-03-19T11:36:00.468Z,2196.00
2019-03-19T11:37:00.449Z,2256.00
2019-03-19T11:38:00.512Z,2252.00
2019-03-19T11:39:00.426Z,2284.00
2019-03-19T11:40:00.485Z,2388.00
2019-03-19T11:41:00.410Z,2616.00
2019-03-19T11:42:00.405Z,2940.00
2019-03-19T11:43:00.417Z,3288.00
2019-03-19T11:44:00.377Z,3672.00
2019-03-19T11:45:00.376Z,4156.00
2019-03-19T11:46:00.476Z,4644.00
2019-03-19T11:47:00.351Z,4708.00
2019-03-19T11:48:00.331Z,4692.00
2019-03-19T11:49:00.319Z,4864.00
2019-03-19T11:50:00.412Z,4964.00
2019-03-19T11:51:00.483Z,6568.00
2019-03-19T11:52:00.299Z,5708.00
2019-03-19T11:53:00.275Z,6168.00
2019-03-19T11:54:00.264Z,29504.00
2019-03-19T11:55:00.355Z,10336.00
2019-03-19T11:56:00.245Z,8656.00
2019-03-19T11:57:00.245Z,9576.00
2019-03-19T11:58:00.228Z,25056.00
2019-03-19T11:59:00.219Z,6864.00
2019-03-19T12:00:10.441Z,6268.00
2019-03-19T12:01:01.187Z,6016.00
2019-03-19T12:02:00.196Z,5636.00
2019-03-19T12:03:10.872Z,5116.00
2019-03-19T12:04:01.157Z,4684.00
2019-03-19T12:05:00.331Z,4200.00
2019-03-19T12:06:00.182Z,3804.00
2019-03-19T12:07:00.134Z,3448.00
2019-03-19T12:08:00.115Z,3180.00
2019-03-19T12:09:00.102Z,3012.00
2019-03-19T12:10:00.161Z,2824.00
2019-03-19T12:11:00.086Z,2688.00
2019-03-19T12:12:00.094Z,2612.00
2019-03-19T12:13:00.063Z,2496.00
2019-03-19T12:14:00.051Z,2336.00
2019-03-19T12:15:00.039Z,2232.00
2019-03-19T12:16:00.030Z,2144.00
2019-03-19T12:17:00.027Z,2064.00
2019-03-19T12:18:00.009Z,2020.00
2019-03-19T12:18:59.999Z,1984.00
2019-03-19T12:19:59.988Z,1940.00
2019-03-19T12:20:59.977Z,1904.00
2019-03-19T12:21:59.974Z,1908.00
2019-03-19T12:23:00.024Z,2000.00
2019-03-19T12:23:59.943Z,2060.00
2019-03-19T12:24:59.940Z,2028.00
2019-03-19T12:25:59.919Z,1932.00
2019-03-19T12:27:00.065Z,1888.00
2019-03-19T12:27:59.901Z,1880.00
2019-03-19T12:28:59.908Z,1988.00
2019-03-19T12:29:59.879Z,2204.00
2019-03-19T12:30:59.878Z,2440.00
2019-03-19T12:31:59.870Z,2668.00
2019-03-19T12:32:59.845Z,2980.00
2019-03-19T12:33:59.834Z,3072.00
2019-03-19T12:35:01.677Z,3144.00